createdAt,value
2022-08-07T00:02:35.272Z,25.11
2022-08-07T00:04:09.294Z,25.33
2022-08-07T00:06:40.937Z,25.33
2022-08-07T00:09:21.345Z,25.31
2022-08-07T00:11:55.304Z,25.26
2022-08-07T00:14:31.546Z,25.24
2022-08-07T00:17:01.867Z,25.20
2022-08-07T00:19:34.158Z,25.18
2022-08-07T00:22:24.526Z,25.15
2022-08-07T00:25:04.890Z,25.13
2022-08-07T00:27:51.797Z,25.11
2022-08-07T00:30:27.009Z,25.10
2022-08-07T00:32:56.748Z,25.09
2022-08-07T00:35:26.561Z,25.08
2022-08-07T00:37:55.018Z,25.06
2022-08-07T00:40:40.024Z,25.04
2022-08-07T00:43:59.702Z,24.97
2022-08-07T00:46:02.008Z,24.99
2022-08-07T00:48:32.085Z,24.98
2022-08-07T00:51:01.340Z,24.77
2022-08-07T00:53:39.339Z,24.96
2022-08-07T00:56:17.783Z,24.98
2022-08-07T00:58:49.772Z,24.95
2022-08-07T01:01:21.403Z,25.05
2022-08-07T01:03:56.379Z,25.08
2022-08-07T01:06:27.261Z,25.08
2022-08-07T01:08:55.805Z,25.07
2022-08-07T01:12:23.838Z,25.06
2022-08-07T01:14:15.635Z,25.04
2022-08-07T01:16:46.939Z,25.05
2022-08-07T01:19:19.173Z,25.04
2022-08-07T01:21:55.373Z,24.99
2022-08-07T01:24:30.667Z,25.01
2022-08-07T01:27:00.492Z,25.02
2022-08-07T01:29:33.929Z,24.96
2022-08-07T01:32:12.248Z,25.00
2022-08-07T01:34:47.149Z,25.00
2022-08-07T01:37:18.982Z,25.00
2022-08-07T01:39:50.352Z,24.99
2022-08-07T01:42:57.445Z,24.95
2022-08-07T01:45:36.203Z,24.90
2022-08-07T01:48:21.722Z,24.93
2022-08-07T01:50:59.889Z,24.94
2022-08-07T01:54:09.571Z,24.92
2022-08-07T01:56:49.504Z,24.93
2022-08-07T01:59:30.946Z,24.92
2022-08-07T02:02:06.395Z,24.86
2022-08-07T02:04:55.705Z,24.92
2022-08-07T02:07:44.881Z,24.92
2022-08-07T02:10:25.737Z,24.91
2022-08-07T02:12:57.913Z,24.91
2022-08-07T02:15:34.220Z,24.91
2022-08-07T02:18:04.017Z,24.92
2022-08-07T02:20:34.324Z,24.91
2022-08-07T02:23:05.988Z,24.91
2022-08-07T02:26:31.765Z,24.93
2022-08-07T02:28:29.751Z,24.91
2022-08-07T02:31:28.045Z,24.92
2022-08-07T02:34:03.583Z,24.91
2022-08-07T02:36:45.133Z,24.91
2022-08-07T02:39:43.702Z,24.92
2022-08-07T02:42:10.093Z,24.91
2022-08-07T02:44:48.081Z,24.91
2022-08-07T02:47:23.774Z,24.89
2022-08-07T02:50:00.162Z,24.91
2022-08-07T02:52:37.315Z,24.90
2022-08-07T02:55:27.331Z,24.91
2022-08-07T02:58:03.051Z,24.91
2022-08-07T03:00:36.032Z,24.91
2022-08-07T03:03:13.558Z,24.90
2022-08-07T03:05:51.911Z,24.89
2022-08-07T03:08:26.941Z,24.90
2022-08-07T03:10:59.212Z,24.91
2022-08-07T03:13:39.082Z,24.93
2022-08-07T03:16:22.839Z,24.91
2022-08-07T03:18:57.025Z,24.92
2022-08-07T03:21:26.311Z,24.94
2022-08-07T03:24:19.375Z,24.90
2022-08-07T03:26:51.210Z,24.94
2022-08-07T03:29:29.212Z,24.97
2022-08-07T03:31:58.757Z,24.99
2022-08-07T03:34:29.037Z,25.01
2022-08-07T03:37:12.189Z,24.92
2022-08-07T03:40:14.766Z,25.01
2022-08-07T03:42:37.667Z,25.02
2022-08-07T03:45:11.115Z,25.03
2022-08-07T03:47:48.182Z,25.06
2022-08-07T03:50:23.080Z,25.10
2022-08-07T03:52:54.676Z,25.10
2022-08-07T03:55:23.442Z,25.09
2022-08-07T03:58:33.725Z,25.13
2022-08-07T04:00:46.322Z,25.16
2022-08-07T04:03:15.677Z,25.17
2022-08-07T04:05:45.567Z,25.20
2022-08-07T04:08:20.981Z,25.23
2022-08-07T04:10:54.616Z,25.30
2022-08-07T04:14:10.833Z,25.34
2022-08-07T04:16:32.380Z,25.38
2022-08-07T04:19:14.968Z,25.42
2022-08-07T04:21:59.354Z,25.47
2022-08-07T04:24:34.060Z,25.51
2022-08-07T04:27:06.333Z,25.57
2022-08-07T04:30:01.181Z,25.63
2022-08-07T04:32:58.017Z,25.68
2022-08-07T04:35:35.290Z,25.73
2022-08-07T04:38:08.287Z,25.78
2022-08-07T04:40:51.473Z,25.82
2022-08-07T04:44:09.846Z,25.89
2022-08-07T04:46:25.984Z,25.94
2022-08-07T04:49:18.096Z,26.01
2022-08-07T04:52:03.566Z,26.06
2022-08-07T04:54:35.133Z,26.10
2022-08-07T04:58:11.091Z,26.15
2022-08-07T05:00:18.879Z,26.17
2022-08-07T05:03:03.483Z,26.18
2022-08-07T05:05:57.364Z,26.21
2022-08-07T05:09:00.195Z,26.23
2022-08-07T05:11:57.047Z,26.23
2022-08-07T05:14:52.324Z,26.23
2022-08-07T05:17:51.598Z,26.23
2022-08-07T05:20:09.629Z,26.23
2022-08-07T05:22:44.433Z,26.25
2022-08-07T05:25:26.135Z,26.23
2022-08-07T05:28:20.012Z,26.22
2022-08-07T05:30:50.064Z,26.24
2022-08-07T05:33:21.657Z,26.23
2022-08-07T05:35:52.337Z,26.17
2022-08-07T05:38:59.923Z,26.24
2022-08-07T05:41:14.301Z,26.19
2022-08-07T05:44:07.773Z,26.23
2022-08-07T05:46:37.397Z,26.21
2022-08-07T05:49:11.824Z,26.03
2022-08-07T05:51:46.162Z,26.16
2022-08-07T05:54:30.785Z,26.21
2022-08-07T05:57:02.644Z,26.21
2022-08-07T05:59:47.328Z,26.20
2022-08-07T06:02:30.796Z,26.20
2022-08-07T06:05:07.038Z,26.21
2022-08-07T06:08:12.985Z,26.21
2022-08-07T06:10:28.329Z,26.21
2022-08-07T06:12:57.474Z,26.20
2022-08-07T06:15:39.170Z,26.17
2022-08-07T06:18:14.437Z,26.23
2022-08-07T06:20:50.546Z,26.24
2022-08-07T06:24:37.638Z,26.21
2022-08-07T06:26:27.277Z,26.21
2022-08-07T06:29:01.440Z,26.22
2022-08-07T06:31:46.995Z,26.21
2022-08-07T06:34:19.441Z,26.22
2022-08-07T06:36:51.861Z,26.15
2022-08-07T06:40:13.362Z,26.25
2022-08-07T06:42:19.326Z,26.24
2022-08-07T06:45:04.297Z,26.25
2022-08-07T06:47:48.220Z,26.26
2022-08-07T06:50:21.280Z,26.26
2022-08-07T06:52:55.731Z,26.29
2022-08-07T06:55:47.874Z,26.29
2022-08-07T06:58:24.533Z,26.29
2022-08-07T07:01:01.242Z,26.30
2022-08-07T07:03:48.686Z,26.20
2022-08-07T07:06:24.018Z,26.27
2022-08-07T07:08:56.983Z,26.28
2022-08-07T07:12:08.217Z,26.27
2022-08-07T07:14:19.241Z,26.27
2022-08-07T07:16:54.226Z,26.26
2022-08-07T07:19:56.262Z,26.25
2022-08-07T07:22:36.161Z,26.23
2022-08-07T07:26:31.022Z,26.22
2022-08-07T07:28:02.581Z,26.21
2022-08-07T07:30:40.049Z,26.21
2022-08-07T07:33:11.970Z,26.20
2022-08-07T07:36:04.103Z,26.20
2022-08-07T07:38:33.873Z,26.17
2022-08-07T07:41:08.799Z,26.17
2022-08-07T07:44:14.344Z,26.11
2022-08-07T07:46:55.200Z,26.09
2022-08-07T07:50:36.312Z,26.12
2022-08-07T07:52:19.218Z,26.09
2022-08-07T07:54:51.370Z,26.08
2022-08-07T07:57:44.053Z,26.06
2022-08-07T08:00:12.245Z,26.01
2022-08-07T08:03:04.753Z,26.03
2022-08-07T08:05:54.207Z,26.02
2022-08-07T08:08:35.496Z,26.00
2022-08-07T08:11:08.999Z,26.00
2022-08-07T08:13:54.570Z,25.99
2022-08-07T08:16:31.205Z,25.98
2022-08-07T08:19:09.953Z,25.59
2022-08-07T08:22:07.860Z,25.86
2022-08-07T08:25:11.477Z,25.95
2022-08-07T08:27:56.396Z,25.91
2022-08-07T08:30:30.169Z,25.91
2022-08-07T08:33:02.891Z,25.89
2022-08-07T08:35:39.617Z,25.91
2022-08-07T08:38:17.960Z,25.89
2022-08-07T08:40:54.768Z,25.88
2022-08-07T08:43:42.099Z,25.88
2022-08-07T08:46:18.034Z,25.86
2022-08-07T08:48:56.652Z,25.86
2022-08-07T08:52:12.580Z,25.85
2022-08-07T08:54:24.946Z,25.84
2022-08-07T08:56:54.953Z,25.83
2022-08-07T08:59:30.360Z,25.83
2022-08-07T09:02:35.275Z,25.82
2022-08-07T09:05:37.167Z,25.81
2022-08-07T09:08:28.230Z,25.80
2022-08-07T09:11:10.752Z,25.80
2022-08-07T09:13:53.022Z,25.81
2022-08-07T09:16:30.558Z,25.81
2022-08-07T09:19:52.635Z,25.81
2022-08-07T09:24:28.762Z,25.78
2022-08-07T09:25:17.308Z,25.80
2022-08-07T09:28:01.258Z,25.80
2022-08-07T09:30:41.778Z,25.80
2022-08-07T09:33:52.535Z,25.80
2022-08-07T09:36:19.873Z,25.77
2022-08-07T09:38:55.205Z,25.80
2022-08-07T09:41:36.258Z,25.79
2022-08-07T09:44:30.018Z,25.81
2022-08-07T09:47:49.577Z,25.80
2022-08-07T09:50:20.933Z,25.79
2022-08-07T09:52:52.276Z,25.78
2022-08-07T09:55:36.885Z,25.76
2022-08-07T09:58:51.103Z,25.76
2022-08-07T10:01:51.480Z,25.73
2022-08-07T10:04:34.769Z,25.72
2022-08-07T10:07:31.800Z,25.72
2022-08-07T10:10:48.289Z,25.58
2022-08-07T10:14:00.810Z,25.73
2022-08-07T10:16:51.256Z,25.64
2022-08-07T10:19:40.216Z,25.70
2022-08-07T10:22:33.574Z,25.70
2022-08-07T10:25:22.651Z,25.72
2022-08-07T10:28:05.341Z,25.72
2022-08-07T10:30:44.308Z,25.73
2022-08-07T10:34:14.068Z,25.73
2022-08-07T10:36:39.805Z,25.73
2022-08-07T10:39:26.096Z,25.74
2022-08-07T10:42:31.279Z,25.74
2022-08-07T10:45:15.088Z,25.56
2022-08-07T10:47:54.086Z,25.76
2022-08-07T10:50:30.918Z,25.76
2022-08-07T10:53:09.217Z,25.64
2022-08-07T10:55:53.504Z,25.76
2022-08-07T10:58:40.750Z,25.77
2022-08-07T11:01:35.362Z,25.75
2022-08-07T11:04:31.810Z,25.78
2022-08-07T11:07:24.859Z,25.80
2022-08-07T11:10:08.856Z,25.81
2022-08-07T11:12:49.248Z,25.82
2022-08-07T11:15:33.140Z,25.83
2022-08-07T11:18:07.199Z,25.83
2022-08-07T11:20:44.182Z,25.79
2022-08-07T11:23:36.553Z,25.81
2022-08-07T11:26:14.513Z,25.80
2022-08-07T11:28:55.445Z,25.79
2022-08-07T11:31:35.493Z,25.81
2022-08-07T11:34:10.911Z,25.76
2022-08-07T11:36:56.488Z,25.86
2022-08-07T11:40:00.192Z,25.84
2022-08-07T11:42:40.479Z,25.85
2022-08-07T11:45:20.570Z,25.85
2022-08-07T11:48:29.815Z,25.86
2022-08-07T11:51:44.685Z,25.87
2022-08-07T11:54:29.669Z,25.87
2022-08-07T11:57:12.670Z,25.89
2022-08-07T12:00:11.594Z,25.89
2022-08-07T12:03:45.239Z,25.89
2022-08-07T12:06:37.173Z,25.86
2022-08-07T12:09:16.547Z,25.92
2022-08-07T12:12:10.324Z,25.92
2022-08-07T12:14:53.863Z,25.42
2022-08-07T12:17:34.200Z,25.93
2022-08-07T12:20:12.849Z,25.95
2022-08-07T12:23:09.188Z,25.76
2022-08-07T12:26:00.846Z,25.98
2022-08-07T12:28:53.957Z,25.97
2022-08-07T12:31:37.676Z,25.95
2022-08-07T12:34:21.326Z,25.97
2022-08-07T12:36:54.466Z,25.98
2022-08-07T12:39:42.420Z,25.98
2022-08-07T12:42:13.331Z,25.95
2022-08-07T12:44:45.124Z,25.99
2022-08-07T12:47:26.956Z,26.02
2022-08-07T12:50:39.472Z,26.01
2022-08-07T12:52:58.488Z,26.00
2022-08-07T12:55:41.122Z,26.01
2022-08-07T12:58:20.065Z,26.01
2022-08-07T13:01:07.628Z,26.02
2022-08-07T13:04:01.971Z,26.02
2022-08-07T13:07:00.287Z,26.03
2022-08-07T13:10:22.028Z,26.03
2022-08-07T13:12:38.988Z,26.04
2022-08-07T13:15:23.438Z,25.88
2022-08-07T13:18:08.683Z,26.06
2022-08-07T13:20:44.636Z,26.06
2022-08-07T13:24:02.222Z,26.07
2022-08-07T13:26:15.868Z,26.07
2022-08-07T13:28:59.881Z,25.87
2022-08-07T13:31:54.950Z,26.08
2022-08-07T13:34:35.549Z,26.08
2022-08-07T13:37:19.797Z,26.10
2022-08-07T13:40:35.098Z,26.09
2022-08-07T13:42:59.029Z,26.08
2022-08-07T13:46:11.379Z,26.08
2022-08-07T13:48:27.524Z,26.07
2022-08-07T13:51:27.123Z,26.05
2022-08-07T13:54:00.310Z,26.05
2022-08-07T13:56:36.016Z,26.03
2022-08-07T13:59:13.512Z,26.03
2022-08-07T14:01:51.225Z,26.03
2022-08-07T14:04:36.191Z,26.01
2022-08-07T14:07:09.791Z,26.01
2022-08-07T14:10:17.347Z,26.01
2022-08-07T14:12:54.555Z,26.01
2022-08-07T14:15:34.995Z,25.99
2022-08-07T14:18:27.317Z,25.99
2022-08-07T14:21:08.450Z,25.98
2022-08-07T14:24:01.107Z,25.99
2022-08-07T14:26:39.134Z,25.80
2022-08-07T14:30:06.730Z,25.99
2022-08-07T14:32:03.182Z,26.03
2022-08-07T14:34:34.369Z,26.06
2022-08-07T14:37:17.329Z,26.09
2022-08-07T14:40:15.516Z,26.11
2022-08-07T14:43:01.511Z,26.10
2022-08-07T14:45:46.913Z,26.11
2022-08-07T14:51:15.756Z,26.12
2022-08-07T14:54:08.849Z,26.11
2022-08-07T14:56:35.200Z,26.11
2022-08-07T15:01:59.063Z,26.09
2022-08-07T15:04:29.024Z,26.08
2022-08-07T15:06:58.176Z,26.08
2022-08-07T15:09:59.153Z,26.05
2022-08-07T15:12:30.459Z,25.94
2022-08-07T15:15:07.532Z,26.04
2022-08-07T15:20:54.647Z,26.02
2022-08-07T15:26:18.398Z,26.01
2022-08-07T15:30:03.565Z,26.02
2022-08-07T15:32:00.618Z,26.02
2022-08-07T15:34:34.772Z,26.02
2022-08-07T15:37:06.897Z,25.96
2022-08-07T15:39:56.560Z,26.04
2022-08-07T15:42:54.313Z,25.99
2022-08-07T15:45:55.983Z,26.02
2022-08-07T15:48:26.088Z,26.02
2022-08-07T15:51:09.438Z,26.01
2022-08-07T15:53:52.742Z,26.02
2022-08-07T15:56:24.715Z,25.93
2022-08-07T15:58:57.933Z,26.02
2022-08-07T16:01:38.290Z,26.02
2022-08-07T16:04:15.627Z,26.01
2022-08-07T16:06:50.261Z,26.02
2022-08-07T16:09:24.111Z,26.00
2022-08-07T16:12:37.973Z,25.99
2022-08-07T16:15:55.598Z,25.60
2022-08-07T16:18:43.418Z,25.95
2022-08-07T16:22:02.116Z,25.94
2022-08-07T16:24:34.190Z,25.92
2022-08-07T16:27:18.107Z,25.91
2022-08-07T16:30:31.752Z,25.91
2022-08-07T16:34:03.398Z,25.88
2022-08-07T16:36:20.059Z,25.90
2022-08-07T16:39:33.870Z,25.90
2022-08-07T16:42:30.155Z,25.89
2022-08-07T16:45:15.369Z,25.90
2022-08-07T16:49:04.340Z,25.88
2022-08-07T16:51:57.756Z,25.86
2022-08-07T16:54:37.628Z,25.88
2022-08-07T16:58:00.809Z,25.87
2022-08-07T17:00:30.208Z,25.76
2022-08-07T17:03:17.773Z,25.86
2022-08-07T17:06:28.721Z,25.87
2022-08-07T17:09:13.890Z,25.77
2022-08-07T17:12:05.229Z,25.87
2022-08-07T17:14:46.516Z,25.77
2022-08-07T17:17:44.053Z,25.85
2022-08-07T17:20:29.896Z,25.84
2022-08-07T17:23:08.575Z,25.83
2022-08-07T17:25:54.573Z,25.82
2022-08-07T17:28:35.294Z,25.82
2022-08-07T17:31:16.302Z,25.80
2022-08-07T17:34:15.493Z,25.79
2022-08-07T17:36:57.540Z,25.77
2022-08-07T17:39:58.797Z,25.77
2022-08-07T17:42:59.767Z,25.74
2022-08-07T17:45:35.032Z,25.77
2022-08-07T17:48:10.349Z,25.76
2022-08-07T17:50:55.593Z,25.75
2022-08-07T17:53:59.727Z,25.74
2022-08-07T17:56:33.631Z,25.73
2022-08-07T17:59:09.980Z,25.74
2022-08-07T18:01:58.835Z,25.73
2022-08-07T18:04:35.873Z,25.49
2022-08-07T18:07:20.045Z,25.71
2022-08-07T18:10:05.739Z,25.71
2022-08-07T18:12:49.629Z,25.69
2022-08-07T18:15:23.899Z,25.68
2022-08-07T18:18:39.813Z,25.69
2022-08-07T18:21:29.546Z,25.66
2022-08-07T18:24:07.255Z,25.63
2022-08-07T18:27:06.609Z,25.59
2022-08-07T18:30:06.079Z,25.57
2022-08-07T18:33:12.053Z,25.55
2022-08-07T18:35:58.138Z,25.52
2022-08-07T18:38:55.182Z,25.50
2022-08-07T18:41:45.353Z,25.49
2022-08-07T18:44:30.521Z,25.46
2022-08-07T18:47:07.685Z,25.44
2022-08-07T18:50:19.720Z,25.42
2022-08-07T18:52:56.382Z,25.41
2022-08-07T18:55:40.677Z,25.40
2022-08-07T18:58:51.837Z,25.41
2022-08-07T19:02:17.653Z,25.40
2022-08-07T19:04:39.825Z,25.37
2022-08-07T19:07:35.191Z,25.38
2022-08-07T19:10:12.184Z,25.37
2022-08-07T19:12:59.581Z,25.28
2022-08-07T19:16:04.527Z,25.36
2022-08-07T19:18:45.108Z,25.32
2022-08-07T19:21:43.955Z,25.33
2022-08-07T19:24:30.683Z,25.31
2022-08-07T19:28:57.947Z,25.30
2022-08-07T19:31:03.675Z,25.29
2022-08-07T19:32:52.158Z,25.26
2022-08-07T19:35:33.250Z,25.26
2022-08-07T19:38:04.836Z,25.24
2022-08-07T19:40:50.545Z,25.21
2022-08-07T19:43:48.592Z,24.98
2022-08-07T19:46:17.823Z,25.16
2022-08-07T19:48:53.592Z,25.15
2022-08-07T19:51:51.798Z,25.12
2022-08-07T19:54:32.757Z,25.08
2022-08-07T19:58:00.289Z,25.04
2022-08-07T20:00:00.548Z,25.04
2022-08-07T20:02:39.132Z,25.03
2022-08-07T20:05:10.881Z,25.01
2022-08-07T20:07:47.762Z,24.90
2022-08-07T20:10:37.959Z,25.00
2022-08-07T20:13:22.827Z,25.00
2022-08-07T20:15:57.585Z,24.99
2022-08-07T20:18:32.519Z,24.86
2022-08-07T20:21:22.050Z,24.98
2022-08-07T20:23:57.802Z,24.96
2022-08-07T20:26:38.540Z,24.97
2022-08-07T20:29:46.534Z,24.94
2022-08-07T20:32:06.854Z,24.94
2022-08-07T20:34:50.792Z,24.93
2022-08-07T20:37:24.435Z,24.92
2022-08-07T20:40:02.323Z,24.90
2022-08-07T20:42:33.897Z,24.89
2022-08-07T20:46:23.842Z,24.89
2022-08-07T20:47:58.341Z,24.87
2022-08-07T20:50:29.203Z,24.78
2022-08-07T20:52:59.642Z,24.83
2022-08-07T20:55:28.647Z,24.80
2022-08-07T20:58:03.466Z,24.80
2022-08-07T21:00:42.210Z,24.80
2022-08-07T21:03:16.924Z,24.77
2022-08-07T21:05:56.154Z,24.76
2022-08-07T21:08:38.302Z,24.75
2022-08-07T21:11:12.033Z,24.67
2022-08-07T21:14:16.228Z,24.72
2022-08-07T21:16:46.759Z,24.70
2022-08-07T21:19:32.528Z,24.64
2022-08-07T21:22:19.057Z,24.69
2022-08-07T21:25:12.315Z,24.69
2022-08-07T21:28:01.688Z,24.68
2022-08-07T21:30:41.813Z,24.67
2022-08-07T21:33:17.274Z,24.67
2022-08-07T21:36:04.310Z,24.66
2022-08-07T21:38:49.774Z,24.66
2022-08-07T21:41:24.425Z,24.65
2022-08-07T21:44:01.581Z,24.65
2022-08-07T21:46:41.966Z,24.65
2022-08-07T21:49:16.784Z,24.46
2022-08-07T21:51:58.733Z,24.64
2022-08-07T21:54:39.182Z,24.60
2022-08-07T21:57:39.890Z,24.43
2022-08-07T22:00:23.149Z,24.60
2022-08-07T22:03:07.004Z,24.60
2022-08-07T22:05:48.124Z,24.60
2022-08-07T22:08:24.655Z,24.44
2022-08-07T22:10:56.241Z,24.65
2022-08-07T22:13:51.037Z,24.57
2022-08-07T22:16:42.256Z,24.68
2022-08-07T22:19:13.000Z,24.39
2022-08-07T22:22:02.180Z,24.74
2022-08-07T22:24:38.803Z,24.71
2022-08-07T22:27:18.525Z,24.83
2022-08-07T22:29:55.684Z,24.86
2022-08-07T22:32:34.185Z,24.62
2022-08-07T22:35:04.813Z,24.92
2022-08-07T22:38:02.005Z,24.91
2022-08-07T22:40:43.646Z,24.97
2022-08-07T22:43:16.934Z,24.98
2022-08-07T22:46:40.632Z,25.00
2022-08-07T22:49:09.707Z,24.97
2022-08-07T22:51:52.062Z,24.96
2022-08-07T22:54:48.993Z,25.07
2022-08-07T22:57:45.905Z,24.89
2022-08-07T23:00:18.980Z,25.11
2022-08-07T23:03:03.595Z,25.11
2022-08-07T23:06:07.148Z,25.17
2022-08-07T23:08:58.444Z,25.16
2022-08-07T23:11:46.469Z,25.18
2022-08-07T23:14:52.984Z,25.17
2022-08-07T23:17:37.740Z,25.18
2022-08-07T23:20:51.316Z,25.13
2022-08-07T23:24:06.006Z,25.15
2022-08-07T23:27:33.627Z,25.13
2022-08-07T23:30:37.207Z,25.15
2022-08-07T23:34:36.093Z,25.16
2022-08-07T23:36:17.327Z,25.18
2022-08-07T23:39:00.003Z,25.17
2022-08-07T23:42:05.057Z,25.21
2022-08-07T23:44:53.718Z,25.23
2022-08-07T23:47:42.424Z,25.24
2022-08-07T23:50:29.977Z,25.06
2022-08-07T23:53:08.466Z,25.27
2022-08-07T23:55:52.987Z,25.27
2022-08-07T23:58:35.443Z,25.27
